sensor_id;sensor_type;location;lat;lon;timestamp;P1;durP1;ratioP1;P2;durP2;ratioP2
29878;SDS011;16752;53.364;-1.488;2023-07-29T00:01:24;3.13;;;1.65;;
29878;SDS011;16752;53.364;-1.488;2023-07-29T00:04:08;8.23;;;1.83;;
29878;SDS011;16752;53.364;-1.488;2023-07-29T00:06:53;3.67;;;1.80;;
29878;SDS011;16752;53.364;-1.488;2023-07-29T00:09:37;3.42;;;1.38;;
29878;SDS011;16752;53.364;-1.488;2023-07-29T00:12:21;1.92;;;1.75;;
29878;SDS011;16752;53.364;-1.488;2023-07-29T00:15:06;2.97;;;1.83;;
29878;SDS011;16752;53.364;-1.488;2023-07-29T00:17:53;3.22;;;1.67;;
29878;SDS011;16752;53.364;-1.488;2023-07-29T00:20:37;1.95;;;1.50;;
29878;SDS011;16752;53.364;-1.488;2023-07-29T00:23:21;1.85;;;1.50;;
29878;SDS011;16752;53.364;-1.488;2023-07-29T00:26:05;2.10;;;1.60;;
29878;SDS011;16752;53.364;-1.488;2023-07-29T00:28:49;3.08;;;1.85;;
29878;SDS011;16752;53.364;-1.488;2023-07-29T00:31:33;6.40;;;2.30;;
29878;SDS011;16752;53.364;-1.488;2023-07-29T00:34:21;3.20;;;1.70;;
29878;SDS011;16752;53.364;-1.488;2023-07-29T00:37:05;4.13;;;1.73;;
29878;SDS011;16752;53.364;-1.488;2023-07-29T00:39:52;2.60;;;1.92;;
29878;SDS011;16752;53.364;-1.488;2023-07-29T00:42:36;3.65;;;1.75;;
29878;SDS011;16752;53.364;-1.488;2023-07-29T00:45:20;4.18;;;1.90;;
29878;SDS011;16752;53.364;-1.488;2023-07-29T00:48:04;6.15;;;2.35;;
29878;SDS011;16752;53.364;-1.488;2023-07-29T00:50:54;3.90;;;2.08;;
29878;SDS011;16752;53.364;-1.488;2023-07-29T00:53:39;5.88;;;1.98;;
29878;SDS011;16752;53.364;-1.488;2023-07-29T00:56:23;3.15;;;1.50;;
29878;SDS011;16752;53.364;-1.488;2023-07-29T00:59:08;4.60;;;2.00;;
29878;SDS011;16752;53.364;-1.488;2023-07-29T01:01:52;4.43;;;2.25;;
29878;SDS011;16752;53.364;-1.488;2023-07-29T01:04:36;5.88;;;2.33;;
29878;SDS011;16752;53.364;-1.488;2023-07-29T01:13:50;3.85;;;1.85;;
29878;SDS011;16752;53.364;-1.488;2023-07-29T01:16:39;3.03;;;1.80;;
29878;SDS011;16752;53.364;-1.488;2023-07-29T01:19:51;4.55;;;2.13;;
29878;SDS011;16752;53.364;-1.488;2023-07-29T01:22:44;4.65;;;2.05;;
29878;SDS011;16752;53.364;-1.488;2023-07-29T01:25:29;3.17;;;2.30;;
29878;SDS011;16752;53.364;-1.488;2023-07-29T01:28:13;4.35;;;2.05;;
29878;SDS011;16752;53.364;-1.488;2023-07-29T01:31:06;4.25;;;2.10;;
29878;SDS011;16752;53.364;-1.488;2023-07-29T01:33:57;2.33;;;2.17;;
29878;SDS011;16752;53.364;-1.488;2023-07-29T01:36:45;2.88;;;1.70;;
29878;SDS011;16752;53.364;-1.488;2023-07-29T01:39:32;3.42;;;2.28;;
29878;SDS011;16752;53.364;-1.488;2023-07-29T01:42:18;3.28;;;1.65;;
29878;SDS011;16752;53.364;-1.488;2023-07-29T01:45:03;3.17;;;2.70;;
29878;SDS011;16752;53.364;-1.488;2023-07-29T01:47:48;5.60;;;2.30;;
29878;SDS011;16752;53.364;-1.488;2023-07-29T01:50:32;6.40;;;2.55;;
29878;SDS011;16752;53.364;-1.488;2023-07-29T01:53:17;3.92;;;2.15;;
29878;SDS011;16752;53.364;-1.488;2023-07-29T01:56:01;3.60;;;1.80;;
29878;SDS011;16752;53.364;-1.488;2023-07-29T01:58:46;4.95;;;2.10;;
29878;SDS011;16752;53.364;-1.488;2023-07-29T02:01:30;3.53;;;1.92;;
29878;SDS011;16752;53.364;-1.488;2023-07-29T02:04:15;5.20;;;2.58;;
29878;SDS011;16752;53.364;-1.488;2023-07-29T02:06:58;5.72;;;2.13;;
29878;SDS011;16752;53.364;-1.488;2023-07-29T02:09:43;4.07;;;1.83;;
29878;SDS011;16752;53.364;-1.488;2023-07-29T02:12:27;3.63;;;2.17;;
29878;SDS011;16752;53.364;-1.488;2023-07-29T02:15:12;3.38;;;1.85;;
29878;SDS011;16752;53.364;-1.488;2023-07-29T02:17:55;5.82;;;2.13;;
29878;SDS011;16752;53.364;-1.488;2023-07-29T02:20:43;2.33;;;1.55;;
29878;SDS011;16752;53.364;-1.488;2023-07-29T02:23:33;2.30;;;1.85;;
29878;SDS011;16752;53.364;-1.488;2023-07-29T02:26:23;2.40;;;1.77;;
29878;SDS011;16752;53.364;-1.488;2023-07-29T02:29:07;2.53;;;2.00;;
29878;SDS011;16752;53.364;-1.488;2023-07-29T02:31:51;6.20;;;2.22;;
29878;SDS011;16752;53.364;-1.488;2023-07-29T02:34:36;4.40;;;2.03;;
29878;SDS011;16752;53.364;-1.488;2023-07-29T02:37:23;3.30;;;2.22;;
29878;SDS011;16752;53.364;-1.488;2023-07-29T02:40:07;5.82;;;2.47;;
29878;SDS011;16752;53.364;-1.488;2023-07-29T02:42:51;2.95;;;1.92;;
29878;SDS011;16752;53.364;-1.488;2023-07-29T02:45:35;5.65;;;1.88;;
29878;SDS011;16752;53.364;-1.488;2023-07-29T02:48:19;5.15;;;1.95;;
29878;SDS011;16752;53.364;-1.488;2023-07-29T02:51:03;5.60;;;2.53;;
29878;SDS011;16752;53.364;-1.488;2023-07-29T02:53:50;5.32;;;2.33;;
29878;SDS011;16752;53.364;-1.488;2023-07-29T02:56:40;4.85;;;1.88;;
29878;SDS011;16752;53.364;-1.488;2023-07-29T02:59:30;5.68;;;2.00;;
29878;SDS011;16752;53.364;-1.488;2023-07-29T03:02:22;3.28;;;1.83;;
29878;SDS011;16752;53.364;-1.488;2023-07-29T03:05:06;4.88;;;1.85;;
29878;SDS011;16752;53.364;-1.488;2023-07-29T03:07:50;3.00;;;1.58;;
29878;SDS011;16752;53.364;-1.488;2023-07-29T03:10:35;7.75;;;2.72;;
29878;SDS011;16752;53.364;-1.488;2023-07-29T03:13:22;2.60;;;1.77;;
29878;SDS011;16752;53.364;-1.488;2023-07-29T03:16:07;6.65;;;2.25;;
29878;SDS011;16752;53.364;-1.488;2023-07-29T03:19:01;5.40;;;2.03;;
29878;SDS011;16752;53.364;-1.488;2023-07-29T03:21:45;3.05;;;1.85;;
29878;SDS011;16752;53.364;-1.488;2023-07-29T03:24:29;3.88;;;2.05;;
29878;SDS011;16752;53.364;-1.488;2023-07-29T03:27:13;2.70;;;1.98;;
29878;SDS011;16752;53.364;-1.488;2023-07-29T03:29:59;4.47;;;1.73;;
29878;SDS011;16752;53.364;-1.488;2023-07-29T03:32:43;2.65;;;1.70;;
29878;SDS011;16752;53.364;-1.488;2023-07-29T03:35:28;2.50;;;1.60;;
29878;SDS011;16752;53.364;-1.488;2023-07-29T03:38:12;5.63;;;2.17;;
29878;SDS011;16752;53.364;-1.488;2023-07-29T03:40:57;9.27;;;2.00;;
29878;SDS011;16752;53.364;-1.488;2023-07-29T03:43:41;5.18;;;2.05;;
29878;SDS011;16752;53.364;-1.488;2023-07-29T03:46:25;7.47;;;2.67;;
29878;SDS011;16752;53.364;-1.488;2023-07-29T03:49:09;3.83;;;1.98;;
29878;SDS011;16752;53.364;-1.488;2023-07-29T03:51:53;10.40;;;2.60;;
29878;SDS011;16752;53.364;-1.488;2023-07-29T03:54:40;9.98;;;2.83;;
29878;SDS011;16752;53.364;-1.488;2023-07-29T03:57:24;7.38;;;1.90;;
29878;SDS011;16752;53.364;-1.488;2023-07-29T04:00:08;3.88;;;2.47;;
29878;SDS011;16752;53.364;-1.488;2023-07-29T04:02:54;3.97;;;1.85;;
29878;SDS011;16752;53.364;-1.488;2023-07-29T04:05:46;5.68;;;1.98;;
29878;SDS011;16752;53.364;-1.488;2023-07-29T04:08:30;4.65;;;1.92;;
29878;SDS011;16752;53.364;-1.488;2023-07-29T04:11:15;12.52;;;2.90;;
29878;SDS011;16752;53.364;-1.488;2023-07-29T04:13:59;6.93;;;2.08;;
29878;SDS011;16752;53.364;-1.488;2023-07-29T04:16:43;9.63;;;2.20;;
29878;SDS011;16752;53.364;-1.488;2023-07-29T04:19:29;8.98;;;2.78;;
29878;SDS011;16752;53.364;-1.488;2023-07-29T04:22:15;7.78;;;2.10;;
29878;SDS011;16752;53.364;-1.488;2023-07-29T04:25:02;7.20;;;2.15;;
29878;SDS011;16752;53.364;-1.488;2023-07-29T04:27:48;4.25;;;1.90;;
29878;SDS011;16752;53.364;-1.488;2023-07-29T04:30:45;11.23;;;2.72;;
29878;SDS011;16752;53.364;-1.488;2023-07-29T04:33:32;4.38;;;2.10;;
29878;SDS011;16752;53.364;-1.488;2023-07-29T04:36:19;6.35;;;2.38;;
29878;SDS011;16752;53.364;-1.488;2023-07-29T04:39:03;5.82;;;2.63;;
29878;SDS011;16752;53.364;-1.488;2023-07-29T04:41:47;5.75;;;2.63;;
29878;SDS011;16752;53.364;-1.488;2023-07-29T04:44:31;7.47;;;3.28;;
29878;SDS011;16752;53.364;-1.488;2023-07-29T04:47:15;6.60;;;3.10;;
29878;SDS011;16752;53.364;-1.488;2023-07-29T04:49:59;9.05;;;2.75;;
29878;SDS011;16752;53.364;-1.488;2023-07-29T04:52:43;8.35;;;2.95;;
29878;SDS011;16752;53.364;-1.488;2023-07-29T04:55:27;8.38;;;2.45;;
29878;SDS011;16752;53.364;-1.488;2023-07-29T04:58:14;8.52;;;2.45;;
29878;SDS011;16752;53.364;-1.488;2023-07-29T05:00:58;6.40;;;2.45;;
29878;SDS011;16752;53.364;-1.488;2023-07-29T05:03:42;7.50;;;2.63;;
29878;SDS011;16752;53.364;-1.488;2023-07-29T05:06:29;7.95;;;3.40;;
29878;SDS011;16752;53.364;-1.488;2023-07-29T05:09:14;7.22;;;3.05;;
29878;SDS011;16752;53.364;-1.488;2023-07-29T05:12:03;9.63;;;2.90;;
29878;SDS011;16752;53.364;-1.488;2023-07-29T05:14:50;8.93;;;2.58;;
29878;SDS011;16752;53.364;-1.488;2023-07-29T05:17:34;6.18;;;3.22;;
29878;SDS011;16752;53.364;-1.488;2023-07-29T05:20:27;7.20;;;3.17;;
29878;SDS011;16752;53.364;-1.488;2023-07-29T05:23:11;7.72;;;2.80;;
29878;SDS011;16752;53.364;-1.488;2023-07-29T05:25:55;7.43;;;3.17;;
29878;SDS011;16752;53.364;-1.488;2023-07-29T05:28:39;8.23;;;3.30;;
29878;SDS011;16752;53.364;-1.488;2023-07-29T05:31:23;6.82;;;2.85;;
29878;SDS011;16752;53.364;-1.488;2023-07-29T05:34:10;12.75;;;2.97;;
29878;SDS011;16752;53.364;-1.488;2023-07-29T05:36:54;9.27;;;2.80;;
29878;SDS011;16752;53.364;-1.488;2023-07-29T05:39:38;8.68;;;3.42;;
29878;SDS011;16752;53.364;-1.488;2023-07-29T05:42:22;8.02;;;3.28;;
29878;SDS011;16752;53.364;-1.488;2023-07-29T05:45:06;7.32;;;3.30;;
29878;SDS011;16752;53.364;-1.488;2023-07-29T05:47:51;7.20;;;3.08;;
29878;SDS011;16752;53.364;-1.488;2023-07-29T05:50:35;10.00;;;3.33;;
29878;SDS011;16752;53.364;-1.488;2023-07-29T05:53:19;14.65;;;3.05;;
29878;SDS011;16752;53.364;-1.488;2023-07-29T05:56:03;10.60;;;3.30;;
29878;SDS011;16752;53.364;-1.488;2023-07-29T05:58:47;8.15;;;3.20;;
29878;SDS011;16752;53.364;-1.488;2023-07-29T06:01:31;6.65;;;2.90;;
29878;SDS011;16752;53.364;-1.488;2023-07-29T06:04:16;10.32;;;3.67;;
29878;SDS011;16752;53.364;-1.488;2023-07-29T06:07:00;6.85;;;2.97;;
29878;SDS011;16752;53.364;-1.488;2023-07-29T06:09:44;6.13;;;2.65;;
29878;SDS011;16752;53.364;-1.488;2023-07-29T06:12:28;5.82;;;2.67;;
29878;SDS011;16752;53.364;-1.488;2023-07-29T06:15:12;7.45;;;2.30;;
29878;SDS011;16752;53.364;-1.488;2023-07-29T06:17:57;6.03;;;2.97;;
29878;SDS011;16752;53.364;-1.488;2023-07-29T06:20:41;7.63;;;2.97;;
29878;SDS011;16752;53.364;-1.488;2023-07-29T06:23:25;9.93;;;3.42;;
29878;SDS011;16752;53.364;-1.488;2023-07-29T06:26:09;6.43;;;2.60;;
29878;SDS011;16752;53.364;-1.488;2023-07-29T06:28:56;5.22;;;3.05;;
29878;SDS011;16752;53.364;-1.488;2023-07-29T06:31:40;8.18;;;2.70;;
29878;SDS011;16752;53.364;-1.488;2023-07-29T06:34:24;8.32;;;2.90;;
29878;SDS011;16752;53.364;-1.488;2023-07-29T06:37:08;9.50;;;3.15;;
29878;SDS011;16752;53.364;-1.488;2023-07-29T06:39:52;6.55;;;2.38;;
29878;SDS011;16752;53.364;-1.488;2023-07-29T06:42:39;8.15;;;3.20;;
29878;SDS011;16752;53.364;-1.488;2023-07-29T06:45:23;6.70;;;2.40;;
29878;SDS011;16752;53.364;-1.488;2023-07-29T06:48:07;8.70;;;2.47;;
29878;SDS011;16752;53.364;-1.488;2023-07-29T06:50:51;5.40;;;2.33;;
29878;SDS011;16752;53.364;-1.488;2023-07-29T06:53:35;8.82;;;2.58;;
29878;SDS011;16752;53.364;-1.488;2023-07-29T06:56:19;11.15;;;2.67;;
29878;SDS011;16752;53.364;-1.488;2023-07-29T06:59:03;5.68;;;2.47;;
29878;SDS011;16752;53.364;-1.488;2023-07-29T07:01:47;6.38;;;2.70;;
29878;SDS011;16752;53.364;-1.488;2023-07-29T07:04:35;5.45;;;2.40;;
29878;SDS011;16752;53.364;-1.488;2023-07-29T07:07:19;5.78;;;3.08;;
29878;SDS011;16752;53.364;-1.488;2023-07-29T07:10:04;10.75;;;3.28;;
29878;SDS011;16752;53.364;-1.488;2023-07-29T07:12:54;7.45;;;2.50;;
29878;SDS011;16752;53.364;-1.488;2023-07-29T07:15:38;6.53;;;2.75;;
29878;SDS011;16752;53.364;-1.488;2023-07-29T07:18:33;7.00;;;2.85;;
29878;SDS011;16752;53.364;-1.488;2023-07-29T07:21:17;9.88;;;2.90;;
29878;SDS011;16752;53.364;-1.488;2023-07-29T07:24:02;12.80;;;3.75;;
29878;SDS011;16752;53.364;-1.488;2023-07-29T07:26:46;7.60;;;3.40;;
29878;SDS011;16752;53.364;-1.488;2023-07-29T07:29:30;12.02;;;3.58;;
29878;SDS011;16752;53.364;-1.488;2023-07-29T07:32:14;9.25;;;2.22;;
29878;SDS011;16752;53.364;-1.488;2023-07-29T07:35:01;6.90;;;2.55;;
29878;SDS011;16752;53.364;-1.488;2023-07-29T07:37:45;7.88;;;2.40;;
29878;SDS011;16752;53.364;-1.488;2023-07-29T07:40:31;8.35;;;2.97;;
29878;SDS011;16752;53.364;-1.488;2023-07-29T07:43:28;8.68;;;2.78;;
29878;SDS011;16752;53.364;-1.488;2023-07-29T07:49:38;8.55;;;2.33;;
29878;SDS011;16752;53.364;-1.488;2023-07-29T07:52:24;4.55;;;2.17;;
29878;SDS011;16752;53.364;-1.488;2023-07-29T07:55:16;7.20;;;2.85;;
29878;SDS011;16752;53.364;-1.488;2023-07-29T07:58:03;8.95;;;2.80;;
29878;SDS011;16752;53.364;-1.488;2023-07-29T08:00:48;6.10;;;2.40;;
29878;SDS011;16752;53.364;-1.488;2023-07-29T08:03:32;6.97;;;2.60;;
29878;SDS011;16752;53.364;-1.488;2023-07-29T08:06:16;7.60;;;2.85;;
29878;SDS011;16752;53.364;-1.488;2023-07-29T08:09:03;7.20;;;3.00;;
29878;SDS011;16752;53.364;-1.488;2023-07-29T08:14:48;7.57;;;2.33;;
29878;SDS011;16752;53.364;-1.488;2023-07-29T08:17:32;9.30;;;2.55;;
29878;SDS011;16752;53.364;-1.488;2023-07-29T08:20:16;5.30;;;2.00;;
29878;SDS011;16752;53.364;-1.488;2023-07-29T08:23:03;6.43;;;1.77;;
29878;SDS011;16752;53.364;-1.488;2023-07-29T08:25:53;6.35;;;2.33;;
29878;SDS011;16752;53.364;-1.488;2023-07-29T08:28:39;4.68;;;1.55;;
29878;SDS011;16752;53.364;-1.488;2023-07-29T08:31:36;3.90;;;1.92;;
29878;SDS011;16752;53.364;-1.488;2023-07-29T08:34:23;5.63;;;1.55;;
29878;SDS011;16752;53.364;-1.488;2023-07-29T08:37:09;5.55;;;2.17;;
29878;SDS011;16752;53.364;-1.488;2023-07-29T08:40:00;7.47;;;1.73;;
29878;SDS011;16752;53.364;-1.488;2023-07-29T08:46:33;11.52;;;3.00;;
29878;SDS011;16752;53.364;-1.488;2023-07-29T08:49:21;3.20;;;1.63;;
29878;SDS011;16752;53.364;-1.488;2023-07-29T08:52:07;5.30;;;1.48;;
29878;SDS011;16752;53.364;-1.488;2023-07-29T08:54:52;6.32;;;1.65;;
29878;SDS011;16752;53.364;-1.488;2023-07-29T08:57:38;5.97;;;1.70;;
29878;SDS011;16752;53.364;-1.488;2023-07-29T09:00:25;2.22;;;1.52;;
29878;SDS011;16752;53.364;-1.488;2023-07-29T09:03:10;7.07;;;1.60;;
29878;SDS011;16752;53.364;-1.488;2023-07-29T09:05:54;2.92;;;1.80;;
29878;SDS011;16752;53.364;-1.488;2023-07-29T09:08:54;7.05;;;1.70;;
29878;SDS011;16752;53.364;-1.488;2023-07-29T09:11:49;5.05;;;1.15;;
29878;SDS011;16752;53.364;-1.488;2023-07-29T09:14:42;5.40;;;2.25;;
29878;SDS011;16752;53.364;-1.488;2023-07-29T09:17:30;6.03;;;1.60;;
29878;SDS011;16752;53.364;-1.488;2023-07-29T09:20:29;3.40;;;1.40;;
29878;SDS011;16752;53.364;-1.488;2023-07-29T09:23:23;3.83;;;1.40;;
29878;SDS011;16752;53.364;-1.488;2023-07-29T09:26:24;6.13;;;2.05;;
29878;SDS011;16752;53.364;-1.488;2023-07-29T09:29:27;7.72;;;1.65;;
29878;SDS011;16752;53.364;-1.488;2023-07-29T09:32:24;6.35;;;1.58;;
29878;SDS011;16752;53.364;-1.488;2023-07-29T09:35:12;4.65;;;1.58;;
29878;SDS011;16752;53.364;-1.488;2023-07-29T09:37:56;6.90;;;2.03;;
29878;SDS011;16752;53.364;-1.488;2023-07-29T09:40:43;8.30;;;1.75;;
29878;SDS011;16752;53.364;-1.488;2023-07-29T09:43:30;6.40;;;1.73;;
29878;SDS011;16752;53.364;-1.488;2023-07-29T09:46:19;6.40;;;1.52;;
29878;SDS011;16752;53.364;-1.488;2023-07-29T09:49:34;6.68;;;1.88;;
29878;SDS011;16752;53.364;-1.488;2023-07-29T09:52:34;8.70;;;1.98;;
29878;SDS011;16752;53.364;-1.488;2023-07-29T09:55:19;7.72;;;1.90;;
29878;SDS011;16752;53.364;-1.488;2023-07-29T09:58:19;6.55;;;1.42;;
29878;SDS011;16752;53.364;-1.488;2023-07-29T10:01:34;5.88;;;1.55;;
29878;SDS011;16752;53.364;-1.488;2023-07-29T10:04:19;5.27;;;1.27;;
29878;SDS011;16752;53.364;-1.488;2023-07-29T10:07:13;6.03;;;1.80;;
29878;SDS011;16752;53.364;-1.488;2023-07-29T10:10:16;6.03;;;1.80;;
29878;SDS011;16752;53.364;-1.488;2023-07-29T10:13:04;3.00;;;1.40;;
29878;SDS011;16752;53.364;-1.488;2023-07-29T10:15:57;6.60;;;1.40;;
29878;SDS011;16752;53.364;-1.488;2023-07-29T10:18:42;3.58;;;1.30;;
29878;SDS011;16752;53.364;-1.488;2023-07-29T10:21:26;6.25;;;1.50;;
29878;SDS011;16752;53.364;-1.488;2023-07-29T10:24:18;3.75;;;1.60;;
29878;SDS011;16752;53.364;-1.488;2023-07-29T10:27:28;7.18;;;1.90;;
29878;SDS011;16752;53.364;-1.488;2023-07-29T10:30:16;4.72;;;1.63;;
29878;SDS011;16752;53.364;-1.488;2023-07-29T10:33:04;3.38;;;1.70;;
29878;SDS011;16752;53.364;-1.488;2023-07-29T10:35:49;5.72;;;1.45;;
29878;SDS011;16752;53.364;-1.488;2023-07-29T10:38:38;5.63;;;1.30;;
29878;SDS011;16752;53.364;-1.488;2023-07-29T10:44:52;6.85;;;2.05;;
29878;SDS011;16752;53.364;-1.488;2023-07-29T10:47:41;9.95;;;1.48;;
29878;SDS011;16752;53.364;-1.488;2023-07-29T10:53:35;8.57;;;1.35;;
29878;SDS011;16752;53.364;-1.488;2023-07-29T10:56:36;3.50;;;0.80;;
29878;SDS011;16752;53.364;-1.488;2023-07-29T10:59:32;6.13;;;1.13;;
29878;SDS011;16752;53.364;-1.488;2023-07-29T11:02:20;5.00;;;1.05;;
29878;SDS011;16752;53.364;-1.488;2023-07-29T11:05:08;3.75;;;1.13;;
29878;SDS011;16752;53.364;-1.488;2023-07-29T11:08:02;2.85;;;1.05;;
29878;SDS011;16752;53.364;-1.488;2023-07-29T11:11:11;5.22;;;1.15;;
29878;SDS011;16752;53.364;-1.488;2023-07-29T11:13:58;5.72;;;1.23;;
29878;SDS011;16752;53.364;-1.488;2023-07-29T11:16:50;5.82;;;1.17;;
29878;SDS011;16752;53.364;-1.488;2023-07-29T11:19:48;5.72;;;1.65;;
29878;SDS011;16752;53.364;-1.488;2023-07-29T11:22:35;5.40;;;1.40;;
29878;SDS011;16752;53.364;-1.488;2023-07-29T11:25:20;6.20;;;1.30;;
29878;SDS011;16752;53.364;-1.488;2023-07-29T11:31:01;4.70;;;1.25;;
29878;SDS011;16752;53.364;-1.488;2023-07-29T11:33:48;7.20;;;1.50;;
29878;SDS011;16752;53.364;-1.488;2023-07-29T11:36:32;2.97;;;1.33;;
29878;SDS011;16752;53.364;-1.488;2023-07-29T11:39:37;6.13;;;2.03;;
29878;SDS011;16752;53.364;-1.488;2023-07-29T11:42:27;6.85;;;1.95;;
29878;SDS011;16752;53.364;-1.488;2023-07-29T11:45:13;7.90;;;2.03;;
29878;SDS011;16752;53.364;-1.488;2023-07-29T11:48:06;9.55;;;2.35;;
29878;SDS011;16752;53.364;-1.488;2023-07-29T11:50:50;12.77;;;2.05;;
29878;SDS011;16752;53.364;-1.488;2023-07-29T11:53:34;9.73;;;1.90;;
29878;SDS011;16752;53.364;-1.488;2023-07-29T11:56:26;8.70;;;1.85;;
29878;SDS011;16752;53.364;-1.488;2023-07-29T11:59:16;6.25;;;1.83;;
29878;SDS011;16752;53.364;-1.488;2023-07-29T12:02:10;5.30;;;1.90;;
29878;SDS011;16752;53.364;-1.488;2023-07-29T12:04:56;5.13;;;1.83;;
29878;SDS011;16752;53.364;-1.488;2023-07-29T12:07:45;6.35;;;1.95;;
29878;SDS011;16752;53.364;-1.488;2023-07-29T12:10:32;5.85;;;1.95;;
29878;SDS011;16752;53.364;-1.488;2023-07-29T12:13:23;7.38;;;1.95;;
29878;SDS011;16752;53.364;-1.488;2023-07-29T12:16:09;5.70;;;1.88;;
29878;SDS011;16752;53.364;-1.488;2023-07-29T12:21:59;5.18;;;1.25;;
29878;SDS011;16752;53.364;-1.488;2023-07-29T12:24:47;5.75;;;1.92;;
29878;SDS011;16752;53.364;-1.488;2023-07-29T12:27:31;8.15;;;2.00;;
29878;SDS011;16752;53.364;-1.488;2023-07-29T12:30:15;8.57;;;1.88;;
29878;SDS011;16752;53.364;-1.488;2023-07-29T12:33:01;4.70;;;1.42;;
29878;SDS011;16752;53.364;-1.488;2023-07-29T12:35:47;4.55;;;1.48;;
29878;SDS011;16752;53.364;-1.488;2023-07-29T12:38:34;4.50;;;1.10;;
29878;SDS011;16752;53.364;-1.488;2023-07-29T12:41:26;3.95;;;1.50;;
29878;SDS011;16752;53.364;-1.488;2023-07-29T12:44:10;7.03;;;1.70;;
29878;SDS011;16752;53.364;-1.488;2023-07-29T12:46:56;5.85;;;1.50;;
29878;SDS011;16752;53.364;-1.488;2023-07-29T12:49:46;9.45;;;1.85;;
29878;SDS011;16752;53.364;-1.488;2023-07-29T12:52:30;9.13;;;2.15;;
29878;SDS011;16752;53.364;-1.488;2023-07-29T12:55:24;5.30;;;2.17;;
29878;SDS011;16752;53.364;-1.488;2023-07-29T12:58:08;6.72;;;1.58;;
29878;SDS011;16752;53.364;-1.488;2023-07-29T13:00:55;4.93;;;1.70;;
29878;SDS011;16752;53.364;-1.488;2023-07-29T13:03:38;6.47;;;1.42;;
29878;SDS011;16752;53.364;-1.488;2023-07-29T13:09:47;4.93;;;1.17;;
29878;SDS011;16752;53.364;-1.488;2023-07-29T13:12:30;6.63;;;1.48;;
29878;SDS011;16752;53.364;-1.488;2023-07-29T13:15:22;6.45;;;1.67;;
29878;SDS011;16752;53.364;-1.488;2023-07-29T13:18:13;12.65;;;1.67;;
29878;SDS011;16752;53.364;-1.488;2023-07-29T13:21:20;5.03;;;1.15;;
29878;SDS011;16752;53.364;-1.488;2023-07-29T13:24:07;4.72;;;1.77;;
29878;SDS011;16752;53.364;-1.488;2023-07-29T13:26:59;5.80;;;1.10;;
29878;SDS011;16752;53.364;-1.488;2023-07-29T13:29:49;4.30;;;1.35;;
29878;SDS011;16752;53.364;-1.488;2023-07-29T13:32:33;8.82;;;1.40;;
29878;SDS011;16752;53.364;-1.488;2023-07-29T13:35:17;3.05;;;1.30;;
29878;SDS011;16752;53.364;-1.488;2023-07-29T13:38:01;6.03;;;1.48;;
29878;SDS011;16752;53.364;-1.488;2023-07-29T13:40:49;5.38;;;1.42;;
29878;SDS011;16752;53.364;-1.488;2023-07-29T13:46:24;5.80;;;1.52;;
29878;SDS011;16752;53.364;-1.488;2023-07-29T13:49:28;3.58;;;1.10;;
29878;SDS011;16752;53.364;-1.488;2023-07-29T13:52:16;3.15;;;1.20;;
29878;SDS011;16752;53.364;-1.488;2023-07-29T13:54:59;5.00;;;1.25;;
29878;SDS011;16752;53.364;-1.488;2023-07-29T13:57:46;3.92;;;1.40;;
29878;SDS011;16752;53.364;-1.488;2023-07-29T14:00:30;3.00;;;1.00;;
29878;SDS011;16752;53.364;-1.488;2023-07-29T14:03:29;3.40;;;0.98;;
29878;SDS011;16752;53.364;-1.488;2023-07-29T14:06:13;5.80;;;1.52;;
29878;SDS011;16752;53.364;-1.488;2023-07-29T14:09:00;2.58;;;1.00;;
29878;SDS011;16752;53.364;-1.488;2023-07-29T14:11:44;2.33;;;0.98;;
29878;SDS011;16752;53.364;-1.488;2023-07-29T14:14:30;2.20;;;1.10;;
29878;SDS011;16752;53.364;-1.488;2023-07-29T14:17:18;4.05;;;1.50;;
29878;SDS011;16752;53.364;-1.488;2023-07-29T14:20:08;3.45;;;1.10;;
29878;SDS011;16752;53.364;-1.488;2023-07-29T14:22:58;3.83;;;1.20;;
29878;SDS011;16752;53.364;-1.488;2023-07-29T14:25:54;5.88;;;1.25;;
29878;SDS011;16752;53.364;-1.488;2023-07-29T14:28:38;3.33;;;1.00;;
29878;SDS011;16752;53.364;-1.488;2023-07-29T14:31:31;4.95;;;0.93;;
29878;SDS011;16752;53.364;-1.488;2023-07-29T14:34:19;1.73;;;0.90;;
29878;SDS011;16752;53.364;-1.488;2023-07-29T14:37:12;3.65;;;1.25;;
29878;SDS011;16752;53.364;-1.488;2023-07-29T14:40:17;4.95;;;1.40;;
29878;SDS011;16752;53.364;-1.488;2023-07-29T14:43:01;4.15;;;1.08;;
29878;SDS011;16752;53.364;-1.488;2023-07-29T14:45:48;5.60;;;1.60;;
29878;SDS011;16752;53.364;-1.488;2023-07-29T14:48:35;6.15;;;1.80;;
29878;SDS011;16752;53.364;-1.488;2023-07-29T14:51:29;4.95;;;1.60;;
29878;SDS011;16752;53.364;-1.488;2023-07-29T14:54:16;4.25;;;1.60;;
29878;SDS011;16752;53.364;-1.488;2023-07-29T14:57:00;7.18;;;1.65;;
29878;SDS011;16752;53.364;-1.488;2023-07-29T14:59:44;6.05;;;1.15;;
29878;SDS011;16752;53.364;-1.488;2023-07-29T15:02:31;6.00;;;1.02;;
29878;SDS011;16752;53.364;-1.488;2023-07-29T15:05:24;7.40;;;1.15;;
29878;SDS011;16752;53.364;-1.488;2023-07-29T15:08:08;5.82;;;1.95;;
29878;SDS011;16752;53.364;-1.488;2023-07-29T15:10:52;5.63;;;1.40;;
29878;SDS011;16752;53.364;-1.488;2023-07-29T15:13:37;3.25;;;1.05;;
29878;SDS011;16752;53.364;-1.488;2023-07-29T15:16:25;2.70;;;1.08;;
29878;SDS011;16752;53.364;-1.488;2023-07-29T15:19:09;7.78;;;1.55;;
29878;SDS011;16752;53.364;-1.488;2023-07-29T15:21:58;8.60;;;1.70;;
29878;SDS011;16752;53.364;-1.488;2023-07-29T15:24:42;2.07;;;0.83;;
29878;SDS011;16752;53.364;-1.488;2023-07-29T15:27:27;3.17;;;0.85;;
29878;SDS011;16752;53.364;-1.488;2023-07-29T15:30:15;2.67;;;1.02;;
29878;SDS011;16752;53.364;-1.488;2023-07-29T15:32:59;3.80;;;0.90;;
29878;SDS011;16752;53.364;-1.488;2023-07-29T15:35:49;6.93;;;1.50;;
29878;SDS011;16752;53.364;-1.488;2023-07-29T15:41:31;3.42;;;1.00;;
29878;SDS011;16752;53.364;-1.488;2023-07-29T15:47:32;3.72;;;0.93;;
29878;SDS011;16752;53.364;-1.488;2023-07-29T15:50:22;4.13;;;1.52;;
29878;SDS011;16752;53.364;-1.488;2023-07-29T15:53:07;3.70;;;1.05;;
29878;SDS011;16752;53.364;-1.488;2023-07-29T15:55:51;5.65;;;1.17;;
29878;SDS011;16752;53.364;-1.488;2023-07-29T15:58:50;5.07;;;1.48;;
29878;SDS011;16752;53.364;-1.488;2023-07-29T16:01:35;2.30;;;0.75;;
29878;SDS011;16752;53.364;-1.488;2023-07-29T16:04:25;3.33;;;0.88;;
29878;SDS011;16752;53.364;-1.488;2023-07-29T16:07:09;2.83;;;0.90;;
29878;SDS011;16752;53.364;-1.488;2023-07-29T16:10:05;4.05;;;0.98;;
29878;SDS011;16752;53.364;-1.488;2023-07-29T16:12:50;3.90;;;1.02;;
29878;SDS011;16752;53.364;-1.488;2023-07-29T16:15:33;3.80;;;0.75;;
29878;SDS011;16752;53.364;-1.488;2023-07-29T16:18:18;3.72;;;0.80;;
29878;SDS011;16752;53.364;-1.488;2023-07-29T16:21:28;3.33;;;1.25;;
29878;SDS011;16752;53.364;-1.488;2023-07-29T16:24:18;4.40;;;1.10;;
29878;SDS011;16752;53.364;-1.488;2023-07-29T16:27:15;3.08;;;1.48;;
29878;SDS011;16752;53.364;-1.488;2023-07-29T16:30:11;4.07;;;0.90;;
29878;SDS011;16752;53.364;-1.488;2023-07-29T16:32:55;2.30;;;1.02;;
29878;SDS011;16752;53.364;-1.488;2023-07-29T16:35:39;2.72;;;1.35;;
29878;SDS011;16752;53.364;-1.488;2023-07-29T16:38:23;6.55;;;0.90;;
29878;SDS011;16752;53.364;-1.488;2023-07-29T16:41:07;4.65;;;1.30;;
29878;SDS011;16752;53.364;-1.488;2023-07-29T16:43:51;4.10;;;0.70;;
29878;SDS011;16752;53.364;-1.488;2023-07-29T16:46:35;3.85;;;1.20;;
29878;SDS011;16752;53.364;-1.488;2023-07-29T16:49:19;3.25;;;1.10;;
29878;SDS011;16752;53.364;-1.488;2023-07-29T16:52:03;3.22;;;1.17;;
29878;SDS011;16752;53.364;-1.488;2023-07-29T16:54:53;3.08;;;1.17;;
29878;SDS011;16752;53.364;-1.488;2023-07-29T16:57:38;3.38;;;1.00;;
29878;SDS011;16752;53.364;-1.488;2023-07-29T17:00:22;4.38;;;1.05;;
29878;SDS011;16752;53.364;-1.488;2023-07-29T17:03:06;2.67;;;1.13;;
29878;SDS011;16752;53.364;-1.488;2023-07-29T17:05:50;2.42;;;1.23;;
29878;SDS011;16752;53.364;-1.488;2023-07-29T17:08:39;5.22;;;1.30;;
29878;SDS011;16752;53.364;-1.488;2023-07-29T17:11:24;4.18;;;1.38;;
29878;SDS011;16752;53.364;-1.488;2023-07-29T17:14:11;4.32;;;1.15;;